CSH9258 ZSAM-ZSPD
Flight info
| Callsign | CSH9258 |
|---|---|
| Flight time | 1h 9m |
| Altitude | 24600 |
| Route | DOVPU W643 FOC W644 ANLUD B221 SHZ W58 XSY |
| Aircraft | B738/M-SDE2E3FGHIRWXY/LB1 |
Departure
| Time | 2026-05-07 09:10 |
|---|---|
| Airport | Xiamen Gaoqi International Airport (ZSAM) |
Arrival
| Time | 2026-05-07 10:20 |
|---|---|
| Airport | Shanghai Pudong International Airport (ZSPD) |
| Time | Latitude | Longitude | Altitude | Speed | Heading |
|---|---|---|---|---|---|
| 2026-05-07 08:30 | 24.54913 | 118.14007 | 35 ft | 0 kts | 232° |
| 2026-05-07 08:55 | 24.54916 | 118.14011 | 37 ft | 2 kts | 232° |
| 2026-05-07 08:55 | 24.54925 | 118.14024 | 37 ft | 2 kts | 232° |
| 2026-05-07 08:55 | 24.54934 | 118.14037 | 36 ft | 2 kts | 231° |
| 2026-05-07 08:56 | 24.54940 | 118.14052 | 35 ft | 2 kts | 275° |
| 2026-05-07 08:56 | 24.54935 | 118.14067 | 33 ft | 1 kts | 312° |
| 2026-05-07 08:56 | 24.54931 | 118.14072 | 32 ft | 1 kts | 327° |
| 2026-05-07 08:56 | 24.54927 | 118.14075 | 32 ft | 0 kts | 322° |
| 2026-05-07 08:59 | 24.54927 | 118.14074 | 32 ft | 0 kts | 322° |
| 2026-05-07 08:59 | 24.54939 | 118.14064 | 32 ft | 5 kts | 320° |
| 2026-05-07 09:00 | 24.54982 | 118.14024 | 34 ft | 9 kts | 309° |
| 2026-05-07 09:00 | 24.54970 | 118.13969 | 36 ft | 6 kts | 233° |
| 2026-05-07 09:00 | 24.54937 | 118.13922 | 38 ft | 10 kts | 232° |
| 2026-05-07 09:00 | 24.54880 | 118.13841 | 41 ft | 16 kts | 232° |
| 2026-05-07 09:01 | 24.54793 | 118.13722 | 43 ft | 23 kts | 231° |
| 2026-05-07 09:01 | 24.54703 | 118.13598 | 46 ft | 13 kts | 233° |
| 2026-05-07 09:01 | 24.54656 | 118.13514 | 47 ft | 12 kts | 234° |
| 2026-05-07 09:01 | 24.54608 | 118.13444 | 49 ft | 10 kts | 232° |
| 2026-05-07 09:02 | 24.54565 | 118.13384 | 50 ft | 9 kts | 231° |
| 2026-05-07 09:02 | 24.54527 | 118.13331 | 51 ft | 8 kts | 231° |
| 2026-05-07 09:02 | 24.54491 | 118.13282 | 51 ft | 8 kts | 231° |
| 2026-05-07 09:02 | 24.54455 | 118.13232 | 51 ft | 8 kts | 231° |
| 2026-05-07 09:03 | 24.54441 | 118.13179 | 52 ft | 6 kts | 288° |
| 2026-05-07 09:03 | 24.54458 | 118.13126 | 52 ft | 8 kts | 268° |
| 2026-05-07 09:03 | 24.54425 | 118.13071 | 52 ft | 10 kts | 230° |
| 2026-05-07 09:03 | 24.54361 | 118.12984 | 54 ft | 18 kts | 231° |
| 2026-05-07 09:04 | 24.54277 | 118.12862 | 55 ft | 20 kts | 232° |
| 2026-05-07 09:04 | 24.54193 | 118.12750 | 57 ft | 18 kts | 230° |
| 2026-05-07 09:04 | 24.54117 | 118.12640 | 59 ft | 17 kts | 234° |
| 2026-05-07 09:04 | 24.54048 | 118.12541 | 62 ft | 15 kts | 232° |
| 2026-05-07 09:05 | 24.53989 | 118.12457 | 65 ft | 12 kts | 232° |
| 2026-05-07 09:05 | 24.53938 | 118.12386 | 67 ft | 10 kts | 232° |
| 2026-05-07 09:05 | 24.53898 | 118.12329 | 69 ft | 8 kts | 232° |
| 2026-05-07 09:05 | 24.53867 | 118.12286 | 70 ft | 6 kts | 232° |
| 2026-05-07 09:06 | 24.53838 | 118.12245 | 70 ft | 6 kts | 232° |
| 2026-05-07 09:06 | 24.53809 | 118.12205 | 71 ft | 7 kts | 232° |
| 2026-05-07 09:06 | 24.53776 | 118.12157 | 72 ft | 7 kts | 232° |
| 2026-05-07 09:06 | 24.53746 | 118.12116 | 73 ft | 7 kts | 232° |
| 2026-05-07 09:07 | 24.53706 | 118.12060 | 75 ft | 10 kts | 231° |
| 2026-05-07 09:07 | 24.53655 | 118.11987 | 77 ft | 13 kts | 232° |
| 2026-05-07 09:07 | 24.53585 | 118.11890 | 78 ft | 18 kts | 231° |
| 2026-05-07 09:07 | 24.53495 | 118.11763 | 76 ft | 22 kts | 232° |
| 2026-05-07 09:08 | 24.53423 | 118.11661 | 74 ft | 10 kts | 235° |
| 2026-05-07 09:08 | 24.53402 | 118.11581 | 73 ft | 12 kts | 284° |
| 2026-05-07 09:08 | 24.53430 | 118.11493 | 71 ft | 10 kts | 312° |
| 2026-05-07 09:08 | 24.53477 | 118.11463 | 71 ft | 6 kts | 27° |
| 2026-05-07 09:09 | 24.53501 | 118.11488 | 71 ft | 0 kts | 51° |
| 2026-05-07 09:09 | 24.53523 | 118.11520 | 71 ft | 27 kts | 52° |
| 2026-05-07 09:10 | 24.53796 | 118.11901 | 75 ft | 98 kts | 52° |
| 2026-05-07 09:10 | 24.54353 | 118.12681 | 58 ft | 159 kts | 52° |
| 2026-05-07 09:10 | 24.55097 | 118.13726 | 454 ft | 175 kts | 51° |
| 2026-05-07 09:10 | 24.55862 | 118.14808 | 974 ft | 189 kts | 55° |
| 2026-05-07 09:11 | 24.56667 | 118.15996 | 1528 ft | 202 kts | 53° |
| 2026-05-07 09:11 | 24.57549 | 118.17200 | 2090 ft | 207 kts | 51° |
| 2026-05-07 09:11 | 24.58507 | 118.18417 | 2585 ft | 214 kts | 50° |
| 2026-05-07 09:11 | 24.59454 | 118.19711 | 3018 ft | 225 kts | 52° |
| 2026-05-07 09:12 | 24.60451 | 118.21137 | 3304 ft | 245 kts | 53° |
| 2026-05-07 09:12 | 24.61529 | 118.22649 | 3767 ft | 257 kts | 49° |
| 2026-05-07 09:12 | 24.62770 | 118.24083 | 4317 ft | 266 kts | 43° |
| 2026-05-07 09:12 | 24.64170 | 118.25486 | 4793 ft | 278 kts | 40° |
| 2026-05-07 09:13 | 24.65634 | 118.26917 | 5498 ft | 281 kts | 40° |
| 2026-05-07 09:13 | 24.67076 | 118.28358 | 6210 ft | 283 kts | 40° |
| 2026-05-07 09:13 | 24.68526 | 118.29831 | 6873 ft | 288 kts | 41° |
| 2026-05-07 09:13 | 24.69986 | 118.31325 | 7532 ft | 292 kts | 41° |
| 2026-05-07 09:14 | 24.71489 | 118.32865 | 8232 ft | 295 kts | 41° |
| 2026-05-07 09:14 | 24.73000 | 118.34412 | 8861 ft | 300 kts | 40° |
| 2026-05-07 09:14 | 24.74495 | 118.35990 | 9529 ft | 305 kts | 43° |
| 2026-05-07 09:14 | 24.75982 | 118.37712 | 10262 ft | 310 kts | 45° |
| 2026-05-07 09:15 | 24.77456 | 118.39490 | 10712 ft | 323 kts | 46° |
| 2026-05-07 09:15 | 24.79003 | 118.41357 | 11056 ft | 339 kts | 45° |
| 2026-05-07 09:15 | 24.80628 | 118.43302 | 11431 ft | 354 kts | 45° |
| 2026-05-07 09:15 | 24.82348 | 118.45349 | 11821 ft | 369 kts | 45° |
| 2026-05-07 09:16 | 24.84123 | 118.47452 | 12140 ft | 383 kts | 45° |
| 2026-05-07 09:16 | 24.85960 | 118.49625 | 12484 ft | 396 kts | 45° |
| 2026-05-07 09:16 | 24.87845 | 118.51869 | 12969 ft | 400 kts | 45° |
| 2026-05-07 09:16 | 24.89755 | 118.54127 | 13510 ft | 406 kts | 45° |
| 2026-05-07 09:17 | 24.91681 | 118.56380 | 14263 ft | 406 kts | 44° |
| 2026-05-07 09:17 | 24.93636 | 118.58654 | 14869 ft | 411 kts | 44° |
| 2026-05-07 09:17 | 24.95595 | 118.60934 | 15492 ft | 416 kts | 44° |
| 2026-05-07 09:17 | 24.97596 | 118.63268 | 16064 ft | 421 kts | 44° |
| 2026-05-07 09:18 | 24.99593 | 118.65601 | 16677 ft | 425 kts | 45° |
| 2026-05-07 09:18 | 25.01626 | 118.67980 | 17279 ft | 428 kts | 45° |
| 2026-05-07 09:18 | 25.03677 | 118.70383 | 17803 ft | 432 kts | 45° |
| 2026-05-07 09:18 | 25.05738 | 118.72801 | 18393 ft | 434 kts | 45° |
| 2026-05-07 09:19 | 25.07831 | 118.75260 | 18934 ft | 438 kts | 45° |
| 2026-05-07 09:19 | 25.09907 | 118.77700 | 19501 ft | 441 kts | 45° |
| 2026-05-07 09:19 | 25.12013 | 118.80173 | 19950 ft | 446 kts | 45° |
| 2026-05-07 09:19 | 25.14135 | 118.82667 | 20495 ft | 448 kts | 45° |
| 2026-05-07 09:20 | 25.16283 | 118.85195 | 20991 ft | 450 kts | 45° |
| 2026-05-07 09:20 | 25.18421 | 118.87712 | 21409 ft | 455 kts | 45° |
| 2026-05-07 09:20 | 25.20573 | 118.90246 | 21898 ft | 457 kts | 45° |
| 2026-05-07 09:20 | 25.22767 | 118.92832 | 22303 ft | 461 kts | 45° |
| 2026-05-07 09:21 | 25.24952 | 118.95409 | 22806 ft | 463 kts | 45° |
| 2026-05-07 09:21 | 25.27170 | 118.98025 | 23208 ft | 467 kts | 45° |
| 2026-05-07 09:21 | 25.29387 | 119.00623 | 23708 ft | 469 kts | 44° |
| 2026-05-07 09:21 | 25.31639 | 119.03245 | 24051 ft | 474 kts | 44° |
| 2026-05-07 09:22 | 25.33917 | 119.05891 | 24446 ft | 475 kts | 44° |
| 2026-05-07 09:22 | 25.36215 | 119.08559 | 24497 ft | 475 kts | 44° |
| 2026-05-07 09:22 | 25.38453 | 119.11161 | 24504 ft | 471 kts | 44° |
| 2026-05-07 09:22 | 25.40725 | 119.13805 | 24510 ft | 472 kts | 44° |
| 2026-05-07 09:23 | 25.42983 | 119.16434 | 24507 ft | 470 kts | 44° |
| 2026-05-07 09:23 | 25.45221 | 119.19043 | 24502 ft | 472 kts | 44° |
| 2026-05-07 09:23 | 25.47478 | 119.21675 | 24498 ft | 471 kts | 44° |
| 2026-05-07 09:23 | 25.49718 | 119.24291 | 24493 ft | 469 kts | 44° |
| 2026-05-07 09:24 | 25.51972 | 119.26925 | 24491 ft | 472 kts | 44° |
| 2026-05-07 09:24 | 25.54241 | 119.29579 | 24493 ft | 470 kts | 44° |
| 2026-05-07 09:24 | 25.56490 | 119.32220 | 24494 ft | 471 kts | 44° |
| 2026-05-07 09:24 | 25.58715 | 119.34843 | 24500 ft | 472 kts | 44° |
| 2026-05-07 09:25 | 25.60960 | 119.37497 | 24503 ft | 470 kts | 44° |
| 2026-05-07 09:25 | 25.63188 | 119.40134 | 24505 ft | 472 kts | 44° |
| 2026-05-07 09:25 | 25.65438 | 119.42799 | 24507 ft | 472 kts | 44° |
| 2026-05-07 09:25 | 25.67689 | 119.45467 | 24509 ft | 471 kts | 44° |
| 2026-05-07 09:26 | 25.69922 | 119.48116 | 24508 ft | 471 kts | 44° |
| 2026-05-07 09:26 | 25.72171 | 119.50781 | 24509 ft | 471 kts | 44° |
| 2026-05-07 09:26 | 25.74397 | 119.53390 | 24506 ft | 470 kts | 43° |
| 2026-05-07 09:26 | 25.76718 | 119.55931 | 24504 ft | 470 kts | 39° |
| 2026-05-07 09:27 | 25.79273 | 119.58180 | 24504 ft | 467 kts | 31° |
| 2026-05-07 09:27 | 25.82026 | 119.60085 | 24501 ft | 465 kts | 26° |
| 2026-05-07 09:27 | 25.87735 | 119.63405 | 24498 ft | 461 kts | 22° |
| 2026-05-07 09:28 | 25.90637 | 119.64993 | 24497 ft | 463 kts | 22° |
| 2026-05-07 09:28 | 25.93511 | 119.66558 | 24497 ft | 463 kts | 22° |
| 2026-05-07 09:28 | 25.96417 | 119.68140 | 24494 ft | 463 kts | 23° |
| 2026-05-07 09:28 | 25.99328 | 119.69731 | 24494 ft | 465 kts | 23° |
| 2026-05-07 09:29 | 26.02216 | 119.71319 | 24493 ft | 463 kts | 23° |
| 2026-05-07 09:29 | 26.05116 | 119.72813 | 24491 ft | 462 kts | 19° |
| 2026-05-07 09:29 | 26.08151 | 119.73931 | 24491 ft | 457 kts | 9° |
| 2026-05-07 09:29 | 26.11278 | 119.74430 | 24492 ft | 451 kts | 359° |
| 2026-05-07 09:30 | 26.14444 | 119.74464 | 24492 ft | 448 kts | 355° |
| 2026-05-07 09:30 | 26.17529 | 119.74325 | 24491 ft | 448 kts | 353° |
| 2026-05-07 09:30 | 26.20664 | 119.74111 | 24491 ft | 445 kts | 352° |
| 2026-05-07 09:30 | 26.23733 | 119.73882 | 24491 ft | 446 kts | 352° |
| 2026-05-07 09:31 | 26.26877 | 119.73644 | 24491 ft | 447 kts | 352° |
| 2026-05-07 09:31 | 26.29945 | 119.73418 | 24494 ft | 447 kts | 352° |
| 2026-05-07 09:31 | 26.33047 | 119.73196 | 24499 ft | 447 kts | 353° |
| 2026-05-07 09:31 | 26.36161 | 119.72981 | 24499 ft | 447 kts | 352° |
| 2026-05-07 09:32 | 26.39262 | 119.72774 | 24504 ft | 445 kts | 352° |
| 2026-05-07 09:32 | 26.42381 | 119.72669 | 24509 ft | 450 kts | 356° |
| 2026-05-07 09:32 | 26.45527 | 119.72947 | 24510 ft | 456 kts | 6° |
| 2026-05-07 09:32 | 26.48615 | 119.73903 | 24512 ft | 461 kts | 17° |
| 2026-05-07 09:33 | 26.51511 | 119.75451 | 24515 ft | 465 kts | 25° |
| 2026-05-07 09:33 | 26.54329 | 119.77281 | 24518 ft | 467 kts | 28° |
| 2026-05-07 09:33 | 26.57078 | 119.79188 | 24517 ft | 465 kts | 28° |
| 2026-05-07 09:33 | 26.59796 | 119.81115 | 24522 ft | 466 kts | 28° |
| 2026-05-07 09:34 | 26.62542 | 119.83076 | 24519 ft | 470 kts | 29° |
| 2026-05-07 09:34 | 26.65291 | 119.85042 | 24517 ft | 470 kts | 28° |
| 2026-05-07 09:34 | 26.68063 | 119.87025 | 24516 ft | 467 kts | 29° |
| 2026-05-07 09:34 | 26.70799 | 119.88975 | 24515 ft | 466 kts | 28° |
| 2026-05-07 09:35 | 26.73530 | 119.90914 | 24514 ft | 467 kts | 28° |
| 2026-05-07 09:35 | 26.76262 | 119.92851 | 24513 ft | 468 kts | 28° |
| 2026-05-07 09:35 | 26.78999 | 119.94788 | 24515 ft | 468 kts | 28° |
| 2026-05-07 09:35 | 26.81771 | 119.96749 | 24520 ft | 469 kts | 28° |
| 2026-05-07 09:36 | 26.84540 | 119.98706 | 24525 ft | 469 kts | 28° |
| 2026-05-07 09:36 | 26.87267 | 120.00636 | 24533 ft | 467 kts | 28° |
| 2026-05-07 09:36 | 26.90035 | 120.02595 | 24539 ft | 468 kts | 28° |
| 2026-05-07 09:36 | 26.92774 | 120.04536 | 24546 ft | 468 kts | 28° |
| 2026-05-07 09:37 | 26.95562 | 120.06512 | 24551 ft | 469 kts | 28° |
| 2026-05-07 09:37 | 26.98321 | 120.08472 | 24564 ft | 468 kts | 28° |
| 2026-05-07 09:37 | 27.01078 | 120.10429 | 24571 ft | 469 kts | 28° |
| 2026-05-07 09:37 | 27.03792 | 120.12357 | 24570 ft | 467 kts | 28° |
| 2026-05-07 09:38 | 27.06540 | 120.14307 | 24566 ft | 467 kts | 28° |
| 2026-05-07 09:38 | 27.09291 | 120.16262 | 24562 ft | 468 kts | 28° |
| 2026-05-07 09:38 | 27.12038 | 120.18216 | 24562 ft | 469 kts | 28° |
| 2026-05-07 09:38 | 27.14796 | 120.20174 | 24550 ft | 468 kts | 28° |
| 2026-05-07 09:39 | 27.17576 | 120.22141 | 24545 ft | 469 kts | 28° |
| 2026-05-07 09:39 | 27.20327 | 120.24081 | 24536 ft | 470 kts | 28° |
| 2026-05-07 09:39 | 27.23089 | 120.26028 | 24521 ft | 466 kts | 27° |
| 2026-05-07 09:39 | 27.25839 | 120.27966 | 24520 ft | 466 kts | 28° |
| 2026-05-07 09:40 | 27.28609 | 120.29916 | 24517 ft | 468 kts | 27° |
| 2026-05-07 09:40 | 27.31346 | 120.31845 | 24519 ft | 468 kts | 27° |
| 2026-05-07 09:40 | 27.34125 | 120.33804 | 24521 ft | 469 kts | 27° |
| 2026-05-07 09:40 | 27.36859 | 120.35738 | 24520 ft | 467 kts | 28° |
| 2026-05-07 09:41 | 27.39607 | 120.37685 | 24519 ft | 467 kts | 28° |
| 2026-05-07 09:41 | 27.42351 | 120.39632 | 24521 ft | 467 kts | 28° |
| 2026-05-07 09:41 | 27.45134 | 120.41611 | 24516 ft | 469 kts | 28° |
| 2026-05-07 09:41 | 27.47864 | 120.43554 | 24510 ft | 469 kts | 27° |
| 2026-05-07 09:42 | 27.50631 | 120.45528 | 24507 ft | 466 kts | 27° |
| 2026-05-07 09:42 | 27.53371 | 120.47482 | 24508 ft | 468 kts | 28° |
| 2026-05-07 09:42 | 27.56118 | 120.49439 | 24501 ft | 469 kts | 28° |
| 2026-05-07 09:42 | 27.58873 | 120.51405 | 24495 ft | 470 kts | 28° |
| 2026-05-07 09:43 | 27.61651 | 120.53388 | 24493 ft | 470 kts | 28° |
| 2026-05-07 09:43 | 27.64417 | 120.55367 | 24489 ft | 468 kts | 27° |
| 2026-05-07 09:43 | 27.67140 | 120.57316 | 24489 ft | 467 kts | 28° |
| 2026-05-07 09:43 | 27.69896 | 120.59282 | 24489 ft | 468 kts | 27° |
| 2026-05-07 09:44 | 27.72718 | 120.61145 | 24487 ft | 466 kts | 24° |
| 2026-05-07 09:44 | 27.75626 | 120.62607 | 24485 ft | 458 kts | 13° |
| 2026-05-07 09:44 | 27.78725 | 120.63442 | 24489 ft | 453 kts | 4° |
| 2026-05-07 09:44 | 27.81845 | 120.63895 | 24489 ft | 452 kts | 0° |
| 2026-05-07 09:45 | 27.84986 | 120.64196 | 24490 ft | 449 kts | 359° |
| 2026-05-07 09:45 | 27.88060 | 120.64436 | 24488 ft | 448 kts | 358° |
| 2026-05-07 09:45 | 27.91213 | 120.64669 | 24490 ft | 451 kts | 358° |
| 2026-05-07 09:45 | 27.94321 | 120.64906 | 24489 ft | 448 kts | 359° |
| 2026-05-07 09:46 | 27.97459 | 120.65159 | 24489 ft | 448 kts | 359° |
| 2026-05-07 09:46 | 28.00566 | 120.65419 | 24487 ft | 450 kts | 359° |
| 2026-05-07 09:46 | 28.03690 | 120.65691 | 24490 ft | 448 kts | 359° |
| 2026-05-07 09:46 | 28.06771 | 120.65972 | 24494 ft | 449 kts | 360° |
| 2026-05-07 09:47 | 28.09900 | 120.66268 | 24497 ft | 451 kts | 360° |
| 2026-05-07 09:47 | 28.13066 | 120.66575 | 24504 ft | 450 kts | 0° |
| 2026-05-07 09:47 | 28.16147 | 120.66878 | 24510 ft | 449 kts | 0° |
| 2026-05-07 09:47 | 28.19258 | 120.67185 | 24515 ft | 448 kts | 360° |
| 2026-05-07 09:48 | 28.22398 | 120.67496 | 24518 ft | 448 kts | 360° |
| 2026-05-07 09:48 | 28.25480 | 120.67799 | 24522 ft | 449 kts | 360° |
| 2026-05-07 09:48 | 28.28592 | 120.68105 | 24527 ft | 448 kts | 360° |
| 2026-05-07 09:48 | 28.31696 | 120.68411 | 24534 ft | 449 kts | 360° |
| 2026-05-07 09:49 | 28.34836 | 120.68720 | 24540 ft | 450 kts | 360° |
| 2026-05-07 09:49 | 28.37938 | 120.69027 | 24547 ft | 449 kts | 360° |
| 2026-05-07 09:49 | 28.41077 | 120.69335 | 24555 ft | 450 kts | 360° |
| 2026-05-07 09:49 | 28.44167 | 120.69640 | 24561 ft | 450 kts | 360° |
| 2026-05-07 09:50 | 28.47322 | 120.69952 | 24567 ft | 450 kts | 360° |
| 2026-05-07 09:50 | 28.50419 | 120.70262 | 24574 ft | 451 kts | 360° |
| 2026-05-07 09:50 | 28.53541 | 120.70577 | 24576 ft | 448 kts | 360° |
| 2026-05-07 09:50 | 28.56647 | 120.70892 | 24574 ft | 449 kts | 360° |
| 2026-05-07 09:51 | 28.59772 | 120.71205 | 24571 ft | 449 kts | 0° |
| 2026-05-07 09:51 | 28.62892 | 120.71520 | 24569 ft | 450 kts | 0° |
| 2026-05-07 09:51 | 28.66003 | 120.71835 | 24566 ft | 449 kts | 360° |
| 2026-05-07 09:51 | 28.69142 | 120.72151 | 24565 ft | 451 kts | 360° |
| 2026-05-07 09:52 | 28.72243 | 120.72472 | 24561 ft | 450 kts | 0° |
| 2026-05-07 09:52 | 28.75344 | 120.72807 | 24559 ft | 447 kts | 0° |
| 2026-05-07 09:52 | 28.78487 | 120.73152 | 24559 ft | 451 kts | 0° |
| 2026-05-07 09:52 | 28.81579 | 120.73492 | 24557 ft | 450 kts | 0° |
| 2026-05-07 09:53 | 28.84691 | 120.73839 | 24555 ft | 448 kts | 0° |
| 2026-05-07 09:53 | 28.87817 | 120.74183 | 24552 ft | 449 kts | 0° |
| 2026-05-07 09:53 | 28.90929 | 120.74515 | 24552 ft | 448 kts | 360° |
| 2026-05-07 09:53 | 28.94058 | 120.74839 | 24551 ft | 449 kts | 0° |
| 2026-05-07 09:54 | 28.97137 | 120.75155 | 24551 ft | 448 kts | 359° |
| 2026-05-07 09:54 | 29.00253 | 120.75472 | 24548 ft | 450 kts | 360° |
| 2026-05-07 09:54 | 29.03379 | 120.75792 | 24545 ft | 448 kts | 359° |
| 2026-05-07 09:54 | 29.06498 | 120.76110 | 24546 ft | 448 kts | 359° |
| 2026-05-07 09:55 | 29.09606 | 120.76427 | 24548 ft | 448 kts | 360° |
| 2026-05-07 09:55 | 29.12712 | 120.76745 | 24553 ft | 450 kts | 0° |
| 2026-05-07 09:55 | 29.15826 | 120.77064 | 24550 ft | 448 kts | 360° |
| 2026-05-07 09:55 | 29.18922 | 120.77383 | 24555 ft | 447 kts | 360° |
| 2026-05-07 09:56 | 29.22045 | 120.77705 | 24557 ft | 449 kts | 360° |
| 2026-05-07 09:56 | 29.25165 | 120.78025 | 24557 ft | 450 kts | 360° |
| 2026-05-07 09:56 | 29.28280 | 120.78348 | 24555 ft | 449 kts | 360° |
| 2026-05-07 09:56 | 29.31371 | 120.78669 | 24554 ft | 449 kts | 360° |
| 2026-05-07 09:57 | 29.34495 | 120.78995 | 24555 ft | 448 kts | 0° |
| 2026-05-07 09:57 | 29.37604 | 120.79318 | 24550 ft | 451 kts | 0° |
| 2026-05-07 09:57 | 29.40744 | 120.79646 | 24545 ft | 448 kts | 360° |
| 2026-05-07 09:57 | 29.43816 | 120.79967 | 24540 ft | 448 kts | 360° |
| 2026-05-07 09:58 | 29.46960 | 120.80294 | 24534 ft | 450 kts | 360° |
| 2026-05-07 09:58 | 29.50059 | 120.80624 | 24529 ft | 450 kts | 1° |
| 2026-05-07 09:58 | 29.53177 | 120.81168 | 24532 ft | 454 kts | 7° |
| 2026-05-07 09:58 | 29.56200 | 120.82217 | 24532 ft | 461 kts | 17° |
| 2026-05-07 09:59 | 29.59084 | 120.83961 | 24533 ft | 469 kts | 28° |
| 2026-05-07 09:59 | 29.61686 | 120.86253 | 24539 ft | 473 kts | 37° |
| 2026-05-07 09:59 | 29.64037 | 120.88882 | 24541 ft | 476 kts | 44° |
| 2026-05-07 09:59 | 29.66175 | 120.91846 | 24543 ft | 482 kts | 50° |
| 2026-05-07 10:00 | 29.68093 | 120.94952 | 24549 ft | 481 kts | 53° |
| 2026-05-07 10:00 | 29.69929 | 120.98171 | 24553 ft | 481 kts | 54° |
| 2026-05-07 10:00 | 29.71719 | 121.01408 | 24554 ft | 484 kts | 55° |
| 2026-05-07 10:00 | 29.73523 | 121.04691 | 24558 ft | 482 kts | 55° |
| 2026-05-07 10:01 | 29.75316 | 121.07948 | 24560 ft | 482 kts | 54° |
| 2026-05-07 10:01 | 29.77103 | 121.11174 | 24561 ft | 484 kts | 54° |
| 2026-05-07 10:01 | 29.78923 | 121.14438 | 24558 ft | 482 kts | 54° |
| 2026-05-07 10:01 | 29.80744 | 121.17680 | 24557 ft | 483 kts | 54° |
| 2026-05-07 10:02 | 29.82567 | 121.20908 | 24549 ft | 482 kts | 54° |
| 2026-05-07 10:02 | 29.84386 | 121.24120 | 24548 ft | 482 kts | 53° |
| 2026-05-07 10:02 | 29.86228 | 121.27361 | 24543 ft | 481 kts | 53° |
| 2026-05-07 10:02 | 29.88158 | 121.30522 | 24535 ft | 481 kts | 49° |
| 2026-05-07 10:03 | 29.90340 | 121.33370 | 24493 ft | 470 kts | 39° |
| 2026-05-07 10:03 | 29.92869 | 121.35628 | 24260 ft | 457 kts | 28° |
| 2026-05-07 10:03 | 29.95546 | 121.37497 | 23993 ft | 448 kts | 25° |
| 2026-05-07 10:03 | 29.98273 | 121.39204 | 23501 ft | 443 kts | 22° |
| 2026-05-07 10:04 | 30.01000 | 121.40838 | 22868 ft | 441 kts | 22° |
| 2026-05-07 10:04 | 30.03722 | 121.42454 | 22240 ft | 441 kts | 22° |
| 2026-05-07 10:04 | 30.06434 | 121.44076 | 21558 ft | 441 kts | 22° |
| 2026-05-07 10:04 | 30.09162 | 121.45727 | 20879 ft | 441 kts | 23° |
| 2026-05-07 10:05 | 30.11883 | 121.47392 | 20201 ft | 442 kts | 24° |
| 2026-05-07 10:05 | 30.14580 | 121.49058 | 19502 ft | 442 kts | 24° |
| 2026-05-07 10:05 | 30.17268 | 121.50728 | 18797 ft | 441 kts | 24° |
| 2026-05-07 10:05 | 30.19988 | 121.52427 | 18089 ft | 440 kts | 24° |
| 2026-05-07 10:06 | 30.22661 | 121.54104 | 17396 ft | 439 kts | 24° |
| 2026-05-07 10:06 | 30.25325 | 121.55778 | 16695 ft | 438 kts | 24° |
| 2026-05-07 10:06 | 30.27990 | 121.57471 | 16015 ft | 435 kts | 25° |
| 2026-05-07 10:06 | 30.30603 | 121.59161 | 15636 ft | 425 kts | 25° |
| 2026-05-07 10:07 | 30.33141 | 121.60814 | 15427 ft | 410 kts | 25° |
| 2026-05-07 10:07 | 30.35624 | 121.62326 | 15254 ft | 394 kts | 22° |
| 2026-05-07 10:07 | 30.38061 | 121.63654 | 14940 ft | 384 kts | 20° |
| 2026-05-07 10:07 | 30.40513 | 121.64919 | 14422 ft | 382 kts | 19° |
| 2026-05-07 10:08 | 30.42934 | 121.66160 | 13910 ft | 379 kts | 20° |
| 2026-05-07 10:08 | 30.45319 | 121.67402 | 13401 ft | 377 kts | 21° |
| 2026-05-07 10:08 | 30.47695 | 121.68667 | 13022 ft | 369 kts | 21° |
| 2026-05-07 10:08 | 30.49966 | 121.69897 | 12854 ft | 356 kts | 21° |
| 2026-05-07 10:09 | 30.52181 | 121.71108 | 12688 ft | 342 kts | 21° |
| 2026-05-07 10:09 | 30.54284 | 121.72263 | 12480 ft | 326 kts | 21° |
| 2026-05-07 10:09 | 30.56296 | 121.73369 | 12279 ft | 312 kts | 21° |
| 2026-05-07 10:09 | 30.58228 | 121.74428 | 12024 ft | 302 kts | 21° |
| 2026-05-07 10:10 | 30.60117 | 121.75460 | 11579 ft | 300 kts | 21° |
| 2026-05-07 10:10 | 30.61976 | 121.76474 | 11097 ft | 298 kts | 21° |
| 2026-05-07 10:10 | 30.63866 | 121.77507 | 10554 ft | 299 kts | 22° |
| 2026-05-07 10:10 | 30.65748 | 121.78535 | 9951 ft | 301 kts | 22° |
| 2026-05-07 10:11 | 30.67645 | 121.79572 | 9355 ft | 303 kts | 22° |
| 2026-05-07 10:11 | 30.69537 | 121.80609 | 8760 ft | 303 kts | 23° |
| 2026-05-07 10:11 | 30.71426 | 121.81727 | 8135 ft | 306 kts | 29° |
| 2026-05-07 10:11 | 30.73080 | 121.83294 | 7519 ft | 309 kts | 50° |
| 2026-05-07 10:12 | 30.74092 | 121.85479 | 6917 ft | 310 kts | 69° |
| 2026-05-07 10:12 | 30.74699 | 121.87866 | 6304 ft | 309 kts | 74° |
| 2026-05-07 10:12 | 30.75456 | 121.90140 | 5769 ft | 301 kts | 55° |
| 2026-05-07 10:12 | 30.76958 | 121.91697 | 5635 ft | 277 kts | 22° |
| 2026-05-07 10:13 | 30.78758 | 121.92071 | 5620 ft | 254 kts | 355° |
| 2026-05-07 10:13 | 30.80414 | 121.91661 | 5451 ft | 240 kts | 339° |
| 2026-05-07 10:13 | 30.81943 | 121.90968 | 5376 ft | 226 kts | 338° |
| 2026-05-07 10:13 | 30.83402 | 121.90353 | 5313 ft | 218 kts | 341° |
| 2026-05-07 10:14 | 30.84818 | 121.89812 | 5069 ft | 216 kts | 342° |
| 2026-05-07 10:14 | 30.86292 | 121.89267 | 4511 ft | 228 kts | 342° |
| 2026-05-07 10:14 | 30.87812 | 121.88701 | 4000 ft | 235 kts | 342° |
| 2026-05-07 10:14 | 30.89396 | 121.88108 | 3479 ft | 242 kts | 342° |
| 2026-05-07 10:15 | 30.91026 | 121.87497 | 2992 ft | 246 kts | 343° |
| 2026-05-07 10:15 | 30.92604 | 121.86906 | 2903 ft | 232 kts | 343° |
| 2026-05-07 10:15 | 30.94095 | 121.86348 | 2906 ft | 216 kts | 343° |
| 2026-05-07 10:15 | 30.95475 | 121.85833 | 2905 ft | 200 kts | 343° |
| 2026-05-07 10:16 | 30.96764 | 121.85351 | 2913 ft | 184 kts | 343° |
| 2026-05-07 10:16 | 30.97924 | 121.84916 | 2918 ft | 168 kts | 343° |
| 2026-05-07 10:16 | 30.98999 | 121.84514 | 2807 ft | 155 kts | 344° |
| 2026-05-07 10:16 | 31.00024 | 121.84130 | 2561 ft | 154 kts | 344° |
| 2026-05-07 10:17 | 31.01026 | 121.83754 | 2376 ft | 151 kts | 344° |
| 2026-05-07 10:17 | 31.02027 | 121.83381 | 2157 ft | 149 kts | 344° |
| 2026-05-07 10:17 | 31.03010 | 121.83012 | 1970 ft | 148 kts | 345° |
| 2026-05-07 10:17 | 31.03976 | 121.82650 | 1770 ft | 145 kts | 345° |
| 2026-05-07 10:18 | 31.04948 | 121.82284 | 1572 ft | 147 kts | 345° |
| 2026-05-07 10:18 | 31.05904 | 121.81928 | 1381 ft | 145 kts | 346° |
| 2026-05-07 10:18 | 31.06869 | 121.81566 | 1185 ft | 143 kts | 346° |
| 2026-05-07 10:18 | 31.07825 | 121.81210 | 997 ft | 145 kts | 345° |
| 2026-05-07 10:19 | 31.08786 | 121.80843 | 802 ft | 144 kts | 345° |
| 2026-05-07 10:19 | 31.09733 | 121.80501 | 625 ft | 142 kts | 347° |
| 2026-05-07 10:19 | 31.10684 | 121.80128 | 421 ft | 143 kts | 345° |
| 2026-05-07 10:19 | 31.11622 | 121.79789 | 242 ft | 140 kts | 346° |
| 2026-05-07 10:20 | 31.12539 | 121.79443 | 84 ft | 137 kts | 347° |
| 2026-05-07 10:20 | 31.13411 | 121.79121 | 21 ft | 117 kts | 345° |
| 2026-05-07 10:20 | 31.13943 | 121.78917 | 21 ft | 46 kts | 341° |
| 2026-05-07 10:20 | 31.14183 | 121.78828 | 21 ft | 30 kts | 342° |
| 2026-05-07 10:21 | 31.14355 | 121.78764 | 21 ft | 19 kts | 346° |
| 2026-05-07 10:21 | 31.14496 | 121.78742 | 21 ft | 20 kts | 1° |
| 2026-05-07 10:21 | 31.14630 | 121.78762 | 21 ft | 17 kts | 10° |
| 2026-05-07 10:21 | 31.14714 | 121.78790 | 21 ft | 8 kts | 45° |
| 2026-05-07 10:22 | 31.14739 | 121.78858 | 21 ft | 9 kts | 71° |
| 2026-05-07 10:22 | 31.14759 | 121.78931 | 21 ft | 9 kts | 72° |
| 2026-05-07 10:22 | 31.14781 | 121.79005 | 21 ft | 9 kts | 71° |
| 2026-05-07 10:22 | 31.14803 | 121.79081 | 21 ft | 10 kts | 72° |
| 2026-05-07 10:23 | 31.14827 | 121.79169 | 21 ft | 12 kts | 72° |
| 2026-05-07 10:23 | 31.14855 | 121.79273 | 21 ft | 14 kts | 73° |
| 2026-05-07 10:23 | 31.14879 | 121.79385 | 21 ft | 13 kts | 120° |
| 2026-05-07 10:23 | 31.14779 | 121.79438 | 21 ft | 20 kts | 162° |
| 2026-05-07 10:24 | 31.14643 | 121.79490 | 21 ft | 20 kts | 162° |
| 2026-05-07 10:24 | 31.14565 | 121.79519 | 21 ft | 9 kts | 162° |
| 2026-05-07 10:24 | 31.14488 | 121.79548 | 21 ft | 12 kts | 162° |
| 2026-05-07 10:24 | 31.14408 | 121.79582 | 21 ft | 11 kts | 143° |
| 2026-05-07 10:25 | 31.14399 | 121.79665 | 21 ft | 11 kts | 73° |
| 2026-05-07 10:25 | 31.14426 | 121.79755 | 21 ft | 12 kts | 61° |
| 2026-05-07 10:25 | 31.14467 | 121.79864 | 21 ft | 19 kts | 72° |
| 2026-05-07 10:25 | 31.14506 | 121.80006 | 21 ft | 16 kts | 72° |
| 2026-05-07 10:26 | 31.14532 | 121.80096 | 21 ft | 8 kts | 63° |
| 2026-05-07 10:26 | 31.14565 | 121.80112 | 21 ft | 4 kts | 357° |
| 2026-05-07 10:26 | 31.14584 | 121.80107 | 21 ft | 2 kts | 341° |
| 2026-05-07 10:26 | 31.14614 | 121.80095 | 21 ft | 4 kts | 341° |
| 2026-05-07 10:27 | 31.14621 | 121.80077 | 21 ft | 3 kts | 256° |
| 2026-05-07 10:27 | 31.14614 | 121.80048 | 21 ft | 3 kts | 253° |
| 2026-05-07 10:27 | 31.14611 | 121.80035 | 21 ft | 0 kts | 253° |
| 2026-05-07 10:27 | 31.14609 | 121.80032 | 21 ft | 0 kts | 253° |